createdAt,value
2017-11-12T00:01:50.661Z,90.20
2017-11-12T00:04:23.463Z,90.20
2017-11-12T00:06:51.481Z,90.20
2017-11-12T00:09:20.414Z,90.20
2017-11-12T00:11:50.434Z,90.20
2017-11-12T00:14:18.455Z,90.20
2017-11-12T00:16:50.161Z,90.10
2017-11-12T00:19:22.834Z,90.10
2017-11-12T00:21:51.837Z,90.20
2017-11-12T00:24:20.855Z,90.20
2017-11-12T00:26:49.641Z,90.10
2017-11-12T00:29:19.421Z,90.00
2017-11-12T00:31:48.413Z,90.00
2017-11-12T00:34:17.398Z,90.00
2017-11-12T00:36:45.426Z,90.00
2017-11-12T00:39:19.829Z,89.90
2017-11-12T00:41:47.869Z,89.70
2017-11-12T00:44:22.874Z,90.00
2017-11-12T00:46:50.897Z,90.00
2017-11-12T00:49:18.932Z,90.00
2017-11-12T00:51:48.954Z,90.00
2017-11-12T00:54:16.989Z,89.90
2017-11-12T00:56:46.013Z,89.80
2017-11-12T00:59:15.002Z,90.00
2017-11-12T01:01:44.001Z,90.00
2017-11-12T01:04:12.989Z,90.00
2017-11-12T01:06:43.026Z,90.00
2017-11-12T01:09:13.737Z,90.00
2017-11-12T01:11:48.286Z,90.00
2017-11-12T01:14:18.073Z,90.00
2017-11-12T01:16:47.061Z,89.90
2017-11-12T01:19:19.033Z,89.60
2017-11-12T01:21:47.061Z,89.10
2017-11-12T01:24:17.013Z,88.70
2017-11-12T01:26:48.669Z,88.90
2017-11-12T01:29:24.384Z,89.50
2017-11-12T01:31:52.437Z,89.90
2017-11-12T01:34:20.481Z,90.10
2017-11-12T01:36:50.265Z,90.20
2017-11-12T01:39:19.285Z,90.20
2017-11-12T01:41:48.080Z,90.10
2017-11-12T01:44:16.125Z,90.10
2017-11-12T01:46:46.133Z,89.90
2017-11-12T01:49:16.861Z,89.20
2017-11-12T01:51:48.789Z,89.10
2017-11-12T01:54:20.581Z,88.60
2017-11-12T01:56:57.061Z,88.10
2017-11-12T01:59:27.072Z,87.80
2017-11-12T02:02:00.809Z,87.50
2017-11-12T02:04:29.732Z,87.50
2017-11-12T02:07:05.609Z,87.80
2017-11-12T02:09:37.412Z,88.00
2017-11-12T02:12:06.369Z,87.90
2017-11-12T02:14:35.369Z,87.80
2017-11-12T02:17:06.716Z,87.80
2017-11-12T02:19:39.701Z,87.40
2017-11-12T02:22:07.769Z,87.30
2017-11-12T02:24:40.240Z,87.20
2017-11-12T02:27:19.961Z,87.30
2017-11-12T02:29:47.992Z,87.40
2017-11-12T02:32:22.649Z,87.30
2017-11-12T02:34:50.680Z,87.30
2017-11-12T02:37:18.738Z,87.20
2017-11-12T02:39:50.277Z,87.60
2017-11-12T02:42:18.337Z,88.10
2017-11-12T02:44:46.373Z,88.50
2017-11-12T02:47:20.500Z,88.70
2017-11-12T02:49:48.539Z,88.60
2017-11-12T02:52:20.101Z,88.90
2017-11-12T02:54:49.041Z,88.90
2017-11-12T02:57:17.972Z,89.00
2017-11-12T02:59:47.908Z,89.10
2017-11-12T03:02:16.932Z,89.10
2017-11-12T03:04:46.956Z,88.70
2017-11-12T03:07:15.020Z,88.70
2017-11-12T03:10:01.996Z,88.60
2017-11-12T03:12:40.420Z,88.40
2017-11-12T03:15:08.444Z,88.60
2017-11-12T03:17:38.424Z,88.50
2017-11-12T03:20:06.476Z,88.40
2017-11-12T03:22:37.844Z,88.30
2017-11-12T03:25:09.505Z,88.20
2017-11-12T03:27:37.524Z,87.90
2017-11-12T03:30:06.454Z,87.80
2017-11-12T03:32:39.043Z,88.00
2017-11-12T03:35:09.057Z,88.10
2017-11-12T03:37:37.884Z,88.20
2017-11-12T03:40:09.492Z,88.20
2017-11-12T03:42:37.508Z,88.40
2017-11-12T03:45:05.528Z,88.50
2017-11-12T03:47:36.784Z,88.70
2017-11-12T03:50:04.800Z,88.80
2017-11-12T03:52:34.759Z,88.90
2017-11-12T03:55:07.172Z,89.10
2017-11-12T03:57:35.956Z,89.40
2017-11-12T04:00:04.884Z,89.40
2017-11-12T04:02:32.937Z,89.40
2017-11-12T04:05:02.862Z,89.30
2017-11-12T04:07:32.812Z,89.10
2017-11-12T04:10:00.839Z,88.90
2017-11-12T04:12:29.776Z,88.70
2017-11-12T04:14:58.701Z,88.50
2017-11-12T04:17:27.496Z,89.10
2017-11-12T04:19:56.439Z,88.50
2017-11-12T04:22:24.500Z,88.40
2017-11-12T04:24:52.539Z,88.40
2017-11-12T04:27:20.560Z,88.50
2017-11-12T04:29:48.591Z,88.60
2017-11-12T04:32:16.616Z,88.70
2017-11-12T04:34:47.323Z,88.40
2017-11-12T04:37:16.260Z,88.40
2017-11-12T04:39:52.271Z,88.50
2017-11-12T04:42:22.204Z,88.60
2017-11-12T04:44:55.175Z,88.70
2017-11-12T04:47:24.191Z,88.70
2017-11-12T04:49:52.995Z,88.50
2017-11-12T04:52:24.748Z,88.50
2017-11-12T04:54:52.771Z,88.60
2017-11-12T04:57:22.296Z,89.20
2017-11-12T04:59:51.307Z,88.60
2017-11-12T05:02:22.003Z,88.90
2017-11-12T05:04:50.930Z,88.90
2017-11-12T05:07:19.719Z,88.80
2017-11-12T05:09:47.760Z,88.70
2017-11-12T05:12:15.811Z,88.90
2017-11-12T05:14:43.836Z,89.00
2017-11-12T05:17:11.859Z,88.90
2017-11-12T05:19:39.903Z,88.80
2017-11-12T05:22:08.924Z,88.70
2017-11-12T05:24:36.955Z,88.70
2017-11-12T05:27:04.987Z,88.60
2017-11-12T05:29:35.700Z,88.70
2017-11-12T05:32:07.548Z,88.60
2017-11-12T05:34:36.479Z,88.70
2017-11-12T05:37:05.272Z,88.80
2017-11-12T05:39:34.244Z,88.80
2017-11-12T05:42:09.023Z,89.40
2017-11-12T05:44:37.067Z,88.80
2017-11-12T05:47:05.109Z,88.80
2017-11-12T05:49:40.731Z,88.90
2017-11-12T05:52:08.763Z,89.10
2017-11-12T05:54:37.712Z,89.10
2017-11-12T05:57:05.755Z,88.90
2017-11-12T05:59:33.784Z,88.90
2017-11-12T06:02:01.810Z,88.90
2017-11-12T06:04:34.983Z,88.90
2017-11-12T06:07:05.028Z,88.60
2017-11-12T06:09:34.770Z,88.70
2017-11-12T06:12:03.716Z,88.70
2017-11-12T06:14:32.634Z,88.90
2017-11-12T06:17:03.358Z,89.20
2017-11-12T06:19:31.379Z,89.20
2017-11-12T06:21:59.407Z,89.20
2017-11-12T06:24:30.159Z,89.20
2017-11-12T06:27:01.402Z,89.20
2017-11-12T06:29:30.383Z,89.40
2017-11-12T06:31:59.179Z,89.50
2017-11-12T06:34:27.970Z,89.30
2017-11-12T06:36:56.006Z,89.30
2017-11-12T06:39:24.023Z,89.30
2017-11-12T06:41:56.790Z,89.30
2017-11-12T06:44:24.819Z,89.40
2017-11-12T06:46:58.082Z,89.40
2017-11-12T06:49:27.018Z,89.50
2017-11-12T06:51:55.039Z,89.30
2017-11-12T06:54:23.091Z,89.50
2017-11-12T06:57:01.018Z,89.40
2017-11-12T06:59:30.694Z,89.40
2017-11-12T07:02:00.666Z,89.40
2017-11-12T07:04:28.694Z,89.60
2017-11-12T07:06:56.730Z,89.70
2017-11-12T07:09:25.566Z,89.90
2017-11-12T07:12:02.050Z,89.90
2017-11-12T07:14:30.086Z,90.10
2017-11-12T07:16:58.111Z,90.10
2017-11-12T07:19:27.051Z,90.20
2017-11-12T07:21:55.074Z,90.30
2017-11-12T07:24:24.055Z,90.30
2017-11-12T07:26:54.086Z,90.10
2017-11-12T07:29:22.114Z,90.00
2017-11-12T07:31:52.050Z,90.00
2017-11-12T07:34:24.435Z,90.10
2017-11-12T07:36:53.406Z,90.20
2017-11-12T07:39:23.154Z,90.10
2017-11-12T07:41:56.431Z,90.10
2017-11-12T07:44:27.454Z,90.10
2017-11-12T07:46:56.470Z,90.00
2017-11-12T07:49:25.395Z,90.00
2017-11-12T07:51:54.306Z,90.00
2017-11-12T07:54:23.357Z,89.90
2017-11-12T07:56:52.231Z,90.00
2017-11-12T07:59:21.199Z,90.00
2017-11-12T08:01:49.239Z,90.00
2017-11-12T08:04:18.162Z,90.00
2017-11-12T08:06:46.197Z,89.30
2017-11-12T08:09:14.251Z,89.30
2017-11-12T08:11:43.206Z,89.20
2017-11-12T08:14:12.194Z,89.60
2017-11-12T08:16:40.230Z,89.80
2017-11-12T08:19:19.165Z,89.80
2017-11-12T08:21:51.265Z,89.60
2017-11-12T08:24:23.022Z,89.80
2017-11-12T08:27:03.454Z,90.20
2017-11-12T08:29:32.362Z,90.00
2017-11-12T08:32:01.358Z,89.80
2017-11-12T08:34:31.390Z,89.50
2017-11-12T08:37:04.261Z,89.80
2017-11-12T08:39:39.706Z,90.10
2017-11-12T08:42:08.606Z,90.00
2017-11-12T08:44:37.609Z,89.80
2017-11-12T08:47:07.318Z,89.50
2017-11-12T08:49:38.122Z,89.50
2017-11-12T08:52:06.149Z,89.50
2017-11-12T08:54:35.198Z,89.90
2017-11-12T08:57:04.122Z,89.20
2017-11-12T08:59:33.069Z,88.60
2017-11-12T09:02:02.073Z,88.20
2017-11-12T09:04:34.125Z,88.30
2017-11-12T09:07:05.914Z,88.60
2017-11-12T09:09:35.622Z,87.00
2017-11-12T09:12:05.417Z,87.20
2017-11-12T09:14:33.448Z,87.20
2017-11-12T09:17:03.149Z,86.70
2017-11-12T09:19:34.960Z,86.70
2017-11-12T09:22:02.976Z,87.10
2017-11-12T09:24:32.661Z,87.50
2017-11-12T09:27:00.705Z,87.40
2017-11-12T09:29:30.437Z,87.00
2017-11-12T09:31:58.465Z,87.00
2017-11-12T09:34:27.478Z,87.30
2017-11-12T09:36:56.449Z,87.20
2017-11-12T09:39:24.472Z,87.00
2017-11-12T09:41:57.477Z,87.30
2017-11-12T09:44:27.433Z,87.30
2017-11-12T09:46:57.442Z,87.30
2017-11-12T09:49:25.462Z,87.80
2017-11-12T09:51:53.489Z,88.00
2017-11-12T09:54:27.930Z,87.90
2017-11-12T09:56:58.629Z,87.60
2017-11-12T09:59:33.068Z,87.80
2017-11-12T10:02:02.853Z,84.40
2017-11-12T10:04:30.905Z,84.20
2017-11-12T10:07:02.598Z,84.60
2017-11-12T10:09:32.513Z,85.80
2017-11-12T10:12:00.534Z,85.90
2017-11-12T10:14:28.584Z,86.40
2017-11-12T10:16:57.441Z,86.80
2017-11-12T10:19:26.357Z,86.80
2017-11-12T10:21:58.401Z,86.90
2017-11-12T10:24:28.308Z,86.90
2017-11-12T10:26:59.868Z,86.80
2017-11-12T10:29:28.845Z,87.00
2017-11-12T10:32:00.601Z,87.40
2017-11-12T10:34:28.625Z,86.60
2017-11-12T10:36:57.557Z,87.10
2017-11-12T10:39:28.517Z,87.30
2017-11-12T10:41:56.537Z,87.00
2017-11-12T10:44:28.128Z,86.90
2017-11-12T10:46:57.041Z,86.60
2017-11-12T10:49:26.774Z,86.50
2017-11-12T10:51:55.621Z,86.80
2017-11-12T10:54:23.636Z,86.80
2017-11-12T10:56:54.501Z,86.70
2017-11-12T10:59:28.045Z,87.50
2017-11-12T11:02:02.533Z,87.50
2017-11-12T11:04:32.277Z,86.20
2017-11-12T11:07:02.977Z,87.20
2017-11-12T11:09:37.521Z,87.40
2017-11-12T11:12:11.196Z,87.30
2017-11-12T11:14:50.625Z,86.80
2017-11-12T11:17:23.933Z,87.10
2017-11-12T11:19:51.972Z,87.60
2017-11-12T11:22:25.310Z,88.30
2017-11-12T11:24:56.362Z,87.70
2017-11-12T11:27:25.140Z,87.60
2017-11-12T11:29:55.148Z,87.60
2017-11-12T11:32:23.176Z,87.50
2017-11-12T11:34:53.113Z,87.30
2017-11-12T11:37:21.133Z,87.50
2017-11-12T11:39:49.940Z,87.30
2017-11-12T11:42:19.892Z,87.20
2017-11-12T11:44:52.989Z,87.60
2017-11-12T11:47:21.013Z,87.70
2017-11-12T11:49:49.029Z,88.00
2017-11-12T11:52:23.024Z,88.00
2017-11-12T11:54:53.048Z,87.90
2017-11-12T11:57:24.916Z,88.00
2017-11-12T11:59:53.884Z,88.70
2017-11-12T12:02:21.909Z,88.20
2017-11-12T12:04:54.706Z,88.10
2017-11-12T12:07:28.876Z,88.00
2017-11-12T12:10:03.415Z,88.00
2017-11-12T12:12:32.192Z,88.10
2017-11-12T12:15:01.170Z,88.00
2017-11-12T12:17:29.191Z,88.10
2017-11-12T12:19:58.223Z,88.20
2017-11-12T12:22:29.384Z,88.20
2017-11-12T12:24:59.401Z,88.40
2017-11-12T12:27:29.421Z,88.40
2017-11-12T12:30:00.548Z,88.60
2017-11-12T12:32:28.617Z,88.30
2017-11-12T12:34:57.613Z,88.30
2017-11-12T12:37:26.564Z,88.20
2017-11-12T12:39:56.528Z,88.10
2017-11-12T12:42:24.552Z,88.30
2017-11-12T12:44:55.940Z,88.40
2017-11-12T12:47:25.223Z,88.50
2017-11-12T12:49:53.224Z,88.30
2017-11-12T12:52:22.204Z,88.40
2017-11-12T12:54:55.984Z,88.60
2017-11-12T12:57:24.028Z,88.40
2017-11-12T12:59:53.988Z,88.60
2017-11-12T13:02:22.971Z,88.50
2017-11-12T13:04:54.148Z,88.60
2017-11-12T13:07:23.231Z,88.40
2017-11-12T13:09:52.464Z,88.30
2017-11-12T13:12:20.496Z,88.30
2017-11-12T13:14:49.475Z,88.40
2017-11-12T13:17:18.480Z,88.40
2017-11-12T13:19:50.120Z,88.70
2017-11-12T13:22:18.136Z,88.60
2017-11-12T13:24:46.200Z,88.40
2017-11-12T13:27:16.903Z,88.40
2017-11-12T13:29:44.919Z,88.40
2017-11-12T13:32:14.290Z,88.70
2017-11-12T13:34:45.035Z,89.30
2017-11-12T13:37:13.176Z,89.20
2017-11-12T13:39:42.167Z,89.30
2017-11-12T13:42:11.171Z,89.10
2017-11-12T13:44:40.988Z,89.10
2017-11-12T13:47:12.943Z,89.20
2017-11-12T13:49:40.952Z,89.20
2017-11-12T13:52:10.011Z,89.00
2017-11-12T13:54:39.020Z,89.20
2017-11-12T13:57:11.187Z,89.80
2017-11-12T13:59:41.939Z,89.90
2017-11-12T14:02:11.902Z,89.90
2017-11-12T14:04:41.920Z,90.00
2017-11-12T14:07:11.016Z,89.80
2017-11-12T14:09:40.027Z,89.80
2017-11-12T14:12:09.831Z,90.00
2017-11-12T14:14:38.645Z,90.00
2017-11-12T14:17:07.611Z,90.00
2017-11-12T14:19:40.280Z,90.00
2017-11-12T14:22:08.300Z,90.10
2017-11-12T14:24:37.225Z,90.00
2017-11-12T14:27:12.543Z,90.20
2017-11-12T14:29:40.574Z,90.00
2017-11-12T14:32:10.392Z,89.60
2017-11-12T14:34:40.167Z,89.80
2017-11-12T14:37:10.195Z,90.10
2017-11-12T14:39:40.925Z,90.30
2017-11-12T14:42:08.939Z,90.10
2017-11-12T14:44:40.991Z,90.30
2017-11-12T14:47:09.031Z,90.40
2017-11-12T14:49:44.335Z,90.50
2017-11-12T14:52:13.371Z,90.70
2017-11-12T14:54:44.078Z,90.80
2017-11-12T14:57:12.095Z,90.80
2017-11-12T14:59:45.884Z,90.70
2017-11-12T15:02:14.834Z,90.70
2017-11-12T15:04:49.951Z,90.60
2017-11-12T15:07:30.507Z,90.00
2017-11-12T15:09:58.522Z,89.70
2017-11-12T15:12:27.494Z,89.50
2017-11-12T15:15:01.095Z,89.60
2017-11-12T15:20:26.550Z,89.90
2017-11-12T15:23:05.019Z,89.80
2017-11-12T15:25:51.702Z,89.20
2017-11-12T15:28:29.830Z,89.30
2017-11-12T15:30:59.801Z,89.30
2017-11-12T15:33:30.498Z,89.10
2017-11-12T15:36:02.474Z,89.10
2017-11-12T15:38:31.390Z,89.20
2017-11-12T15:41:03.902Z,89.70
2017-11-12T15:43:33.850Z,89.70
2017-11-12T15:46:18.963Z,90.00
2017-11-12T15:48:51.290Z,90.00
2017-11-12T15:51:20.286Z,90.00
2017-11-12T15:53:53.063Z,90.00
2017-11-12T15:56:21.098Z,89.80
2017-11-12T15:59:03.990Z,89.60
2017-11-12T16:01:32.910Z,89.60
2017-11-12T16:04:05.418Z,89.60
2017-11-12T16:06:33.451Z,89.60
2017-11-12T16:09:11.046Z,89.70
2017-11-12T16:11:41.915Z,89.70
2017-11-12T16:14:09.939Z,89.70
2017-11-12T16:16:38.567Z,89.70
2017-11-12T16:19:07.491Z,88.50
2017-11-12T16:21:47.480Z,87.40
2017-11-12T16:24:17.463Z,87.40
2017-11-12T16:26:48.259Z,88.60
2017-11-12T16:29:17.251Z,88.50
2017-11-12T16:31:46.166Z,88.90
2017-11-12T16:34:18.314Z,88.90
2017-11-12T16:36:46.806Z,88.90
2017-11-12T16:39:16.535Z,89.20
2017-11-12T16:41:45.326Z,89.20
2017-11-12T16:44:14.274Z,89.20
2017-11-12T16:46:42.298Z,89.20
2017-11-12T16:49:11.234Z,88.90
2017-11-12T16:51:40.225Z,89.10
2017-11-12T16:54:08.246Z,89.10
2017-11-12T16:56:36.289Z,89.20
2017-11-12T16:59:04.302Z,89.00
2017-11-12T17:01:35.478Z,89.10
2017-11-12T17:04:08.362Z,89.30
2017-11-12T17:06:36.353Z,89.30
2017-11-12T17:09:05.318Z,89.30
2017-11-12T17:11:34.323Z,89.00
2017-11-12T17:14:04.250Z,89.40
2017-11-12T17:16:32.261Z,89.50
2017-11-12T17:19:02.234Z,89.50
2017-11-12T17:21:30.262Z,89.50
2017-11-12T17:24:00.102Z,89.70
2017-11-12T17:26:28.125Z,89.80
2017-11-12T17:28:58.066Z,89.70
2017-11-12T17:31:32.254Z,89.60
2017-11-12T17:34:01.182Z,89.60
2017-11-12T17:36:30.169Z,89.60
2017-11-12T17:39:03.790Z,89.70
2017-11-12T17:41:32.821Z,89.70
2017-11-12T17:44:00.845Z,89.70
2017-11-12T17:46:30.878Z,89.90
2017-11-12T17:48:59.846Z,89.90
2017-11-12T17:51:36.089Z,90.00
2017-11-12T17:54:05.109Z,89.80
2017-11-12T17:56:34.684Z,89.80
2017-11-12T17:59:08.457Z,89.90
2017-11-12T18:01:37.245Z,90.00
2017-11-12T18:04:11.293Z,90.00
2017-11-12T18:06:43.159Z,90.00
2017-11-12T18:09:16.177Z,90.00
2017-11-12T18:11:45.174Z,90.00
2017-11-12T18:14:14.149Z,90.20
2017-11-12T18:16:42.233Z,90.00
2017-11-12T18:19:23.058Z,90.00
2017-11-12T18:21:53.010Z,90.00
2017-11-12T18:24:37.861Z,90.10
2017-11-12T18:27:11.997Z,90.10
2017-11-12T18:29:45.669Z,90.10
2017-11-12T18:32:16.764Z,90.10
2017-11-12T18:34:52.366Z,90.10
2017-11-12T18:37:30.981Z,90.10
2017-11-12T18:40:17.437Z,90.10
2017-11-12T18:42:50.785Z,90.10
2017-11-12T18:45:22.569Z,90.10
2017-11-12T18:47:55.437Z,90.10
2017-11-12T18:50:27.193Z,90.10
2017-11-12T18:52:55.249Z,90.10
2017-11-12T18:58:28.261Z,90.00
2017-11-12T19:01:19.737Z,90.00
2017-11-12T19:07:01.501Z,90.00
2017-11-12T19:09:31.229Z,90.00
2017-11-12T19:15:07.897Z,90.00
2017-11-12T19:17:39.396Z,90.00
2017-11-12T19:20:08.349Z,90.00
2017-11-12T19:22:54.025Z,90.00
2017-11-12T19:25:28.936Z,90.00
2017-11-12T19:30:55.512Z,90.00
2017-11-12T19:39:22.409Z,90.00
2017-11-12T19:41:58.354Z,90.00
2017-11-12T19:44:34.315Z,90.00
2017-11-12T19:47:09.321Z,90.00
2017-11-12T19:52:31.393Z,90.00
2017-11-12T19:55:04.488Z,90.10
2017-11-12T19:57:36.337Z,90.00
2017-11-12T20:03:00.236Z,90.00
2017-11-12T20:05:30.936Z,90.00
2017-11-12T20:08:06.852Z,90.00
2017-11-12T20:10:48.360Z,90.00
2017-11-12T20:13:20.556Z,90.00
2017-11-12T20:15:49.564Z,90.00
2017-11-12T20:18:27.352Z,90.00
2017-11-12T20:21:06.977Z,90.00
2017-11-12T20:23:42.704Z,90.00
2017-11-12T20:26:30.972Z,90.00
2017-11-12T20:29:02.584Z,90.00
2017-11-12T20:31:33.892Z,89.90
2017-11-12T20:34:15.169Z,89.90
2017-11-12T20:36:44.180Z,89.90
2017-11-12T20:42:18.365Z,90.00
2017-11-12T20:44:50.788Z,90.00
2017-11-12T20:47:26.785Z,90.00
2017-11-12T20:53:01.549Z,90.00
2017-11-12T20:55:33.037Z,90.00
2017-11-12T20:58:03.764Z,90.00
2017-11-12T21:00:36.214Z,90.00
2017-11-12T21:03:07.697Z,90.00
2017-11-12T21:05:50.460Z,90.00
2017-11-12T21:08:22.127Z,90.00
2017-11-12T21:10:53.596Z,90.00
2017-11-12T21:13:21.628Z,90.10
2017-11-12T21:15:51.544Z,90.10
2017-11-12T21:18:19.788Z,90.00
2017-11-12T21:20:50.428Z,90.00
2017-11-12T21:23:22.001Z,90.00
2017-11-12T21:25:50.040Z,90.00
2017-11-12T21:28:21.280Z,90.10
2017-11-12T21:30:50.116Z,90.10
2017-11-12T21:33:23.319Z,90.10
2017-11-12T21:35:51.336Z,90.00
2017-11-12T21:38:20.136Z,90.10
2017-11-12T21:40:48.165Z,90.10
2017-11-12T21:43:19.816Z,90.10
2017-11-12T21:45:47.867Z,90.10
2017-11-12T21:48:15.912Z,90.30
2017-11-12T21:50:43.951Z,90.10
2017-11-12T21:53:13.760Z,90.10
2017-11-12T21:55:42.548Z,90.10
2017-11-12T21:58:14.207Z,90.10
2017-11-12T22:00:43.987Z,90.10
2017-11-12T22:03:13.015Z,90.10
2017-11-12T22:05:41.980Z,90.00
2017-11-12T22:08:10.003Z,90.00
2017-11-12T22:10:41.204Z,90.00
2017-11-12T22:13:11.956Z,90.00
2017-11-12T22:15:39.979Z,90.00
2017-11-12T22:18:09.019Z,90.00
2017-11-12T22:20:37.067Z,90.00
2017-11-12T22:23:06.884Z,90.00
2017-11-12T22:25:40.191Z,90.00
2017-11-12T22:28:08.220Z,90.00
2017-11-12T22:30:37.219Z,90.00
2017-11-12T22:33:05.286Z,90.00
2017-11-12T22:35:33.295Z,90.00
2017-11-12T22:38:01.332Z,90.00
2017-11-12T22:40:29.395Z,90.00
2017-11-12T22:42:57.411Z,90.00
2017-11-12T22:45:25.604Z,89.90
2017-11-12T22:47:53.655Z,90.20
2017-11-12T22:50:22.588Z,89.90
2017-11-12T22:52:51.607Z,90.00
2017-11-12T22:55:19.952Z,89.90
2017-11-12T22:57:47.988Z,89.90
2017-11-12T23:00:16.011Z,89.90
2017-11-12T23:02:45.023Z,89.80
2017-11-12T23:05:15.742Z,89.70
2017-11-12T23:07:44.767Z,89.70
2017-11-12T23:10:13.739Z,89.70
2017-11-12T23:12:45.601Z,89.70
2017-11-12T23:15:16.375Z,89.80
2017-11-12T23:17:44.412Z,89.70
2017-11-12T23:20:13.220Z,89.70
2017-11-12T23:22:42.167Z,89.60
2017-11-12T23:25:12.195Z,89.70
2017-11-12T23:27:40.219Z,89.60
2017-11-12T23:30:08.266Z,90.00
2017-11-12T23:32:37.236Z,89.60
2017-11-12T23:35:07.995Z,89.70
2017-11-12T23:37:37.975Z,89.60
2017-11-12T23:40:06.791Z,89.60
2017-11-12T23:42:34.871Z,89.60
2017-11-12T23:45:02.931Z,89.60
2017-11-12T23:47:30.971Z,89.60
2017-11-12T23:49:59.019Z,89.60
2017-11-12T23:52:27.047Z,90.00
2017-11-12T23:54:56.028Z,89.60
2017-11-12T23:57:24.088Z,89.60
2017-11-12T23:59:52.882Z,89.60
